sensor_id;sensor_type;location;lat;lon;timestamp;temperature;humidity
18868;DHT22;9563;49.240;9.088;2022-12-19T00:00:40;-0.70;99.90
18868;DHT22;9563;49.240;9.088;2022-12-19T00:03:09;-0.60;99.90
18868;DHT22;9563;49.240;9.088;2022-12-19T00:05:36;-0.70;99.90
18868;DHT22;9563;49.240;9.088;2022-12-19T00:08:04;-0.60;99.90
18868;DHT22;9563;49.240;9.088;2022-12-19T00:10:31;-0.60;99.90
18868;DHT22;9563;49.240;9.088;2022-12-19T00:12:58;-0.50;99.90
18868;DHT22;9563;49.240;9.088;2022-12-19T00:15:24;-0.40;99.90
18868;DHT22;9563;49.240;9.088;2022-12-19T00:17:51;-0.50;99.90
18868;DHT22;9563;49.240;9.088;2022-12-19T00:20:20;-0.40;99.90
18868;DHT22;9563;49.240;9.088;2022-12-19T00:22:46;-0.40;99.90
18868;DHT22;9563;49.240;9.088;2022-12-19T00:25:13;-0.40;99.90
18868;DHT22;9563;49.240;9.088;2022-12-19T00:27:40;-0.40;99.90
18868;DHT22;9563;49.240;9.088;2022-12-19T00:30:08;-0.50;99.90
18868;DHT22;9563;49.240;9.088;2022-12-19T00:32:36;-0.40;99.90
18868;DHT22;9563;49.240;9.088;2022-12-19T00:35:03;-0.50;99.90
18868;DHT22;9563;49.240;9.088;2022-12-19T00:37:32;-0.50;99.90
18868;DHT22;9563;49.240;9.088;2022-12-19T00:39:58;-0.40;99.90
18868;DHT22;9563;49.240;9.088;2022-12-19T00:42:27;-0.40;99.90
18868;DHT22;9563;49.240;9.088;2022-12-19T00:44:54;-0.30;99.90
18868;DHT22;9563;49.240;9.088;2022-12-19T00:47:21;-0.40;99.90
18868;DHT22;9563;49.240;9.088;2022-12-19T00:49:47;-0.40;99.90
18868;DHT22;9563;49.240;9.088;2022-12-19T00:52:16;-0.40;99.90
18868;DHT22;9563;49.240;9.088;2022-12-19T00:54:44;-0.40;99.90
18868;DHT22;9563;49.240;9.088;2022-12-19T00:57:12;-0.30;99.90
18868;DHT22;9563;49.240;9.088;2022-12-19T00:59:39;-0.40;99.90
18868;DHT22;9563;49.240;9.088;2022-12-19T01:02:06;-0.40;99.90
18868;DHT22;9563;49.240;9.088;2022-12-19T01:04:33;-0.40;99.90
18868;DHT22;9563;49.240;9.088;2022-12-19T01:06:59;-0.40;99.90
18868;DHT22;9563;49.240;9.088;2022-12-19T01:09:27;-0.40;99.90
18868;DHT22;9563;49.240;9.088;2022-12-19T01:11:55;-0.40;99.90
18868;DHT22;9563;49.240;9.088;2022-12-19T01:14:36;-0.40;99.90
18868;DHT22;9563;49.240;9.088;2022-12-19T01:17:02;-0.40;99.90
18868;DHT22;9563;49.240;9.088;2022-12-19T01:19:29;-0.30;99.90
18868;DHT22;9563;49.240;9.088;2022-12-19T01:21:56;-0.40;99.90
18868;DHT22;9563;49.240;9.088;2022-12-19T01:24:23;-0.40;99.90
18868;DHT22;9563;49.240;9.088;2022-12-19T01:26:50;-0.40;99.90
18868;DHT22;9563;49.240;9.088;2022-12-19T01:29:18;-0.40;99.90
18868;DHT22;9563;49.240;9.088;2022-12-19T01:31:45;-0.40;99.90
18868;DHT22;9563;49.240;9.088;2022-12-19T01:34:12;-0.40;99.90
18868;DHT22;9563;49.240;9.088;2022-12-19T01:36:39;-0.40;99.90
18868;DHT22;9563;49.240;9.088;2022-12-19T01:39:06;-0.40;99.90
18868;DHT22;9563;49.240;9.088;2022-12-19T01:41:33;-0.30;99.90
18868;DHT22;9563;49.240;9.088;2022-12-19T01:44:02;-0.30;99.90
18868;DHT22;9563;49.240;9.088;2022-12-19T01:46:33;-0.30;99.90
18868;DHT22;9563;49.240;9.088;2022-12-19T01:49:02;-0.30;99.90
18868;DHT22;9563;49.240;9.088;2022-12-19T01:51:35;-0.30;99.90
18868;DHT22;9563;49.240;9.088;2022-12-19T01:54:07;-0.30;99.90
18868;DHT22;9563;49.240;9.088;2022-12-19T01:56:39;-0.30;99.90
18868;DHT22;9563;49.240;9.088;2022-12-19T01:59:16;-0.30;99.90
18868;DHT22;9563;49.240;9.088;2022-12-19T02:01:46;-0.30;99.90
18868;DHT22;9563;49.240;9.088;2022-12-19T02:04:13;-0.30;99.90
18868;DHT22;9563;49.240;9.088;2022-12-19T02:06:41;-0.30;99.90
18868;DHT22;9563;49.240;9.088;2022-12-19T02:09:08;-0.30;99.90
18868;DHT22;9563;49.240;9.088;2022-12-19T02:11:36;-0.30;99.90
18868;DHT22;9563;49.240;9.088;2022-12-19T02:14:03;-0.20;99.90
18868;DHT22;9563;49.240;9.088;2022-12-19T02:16:39;-0.30;99.90
18868;DHT22;9563;49.240;9.088;2022-12-19T02:19:29;-0.40;99.90
18868;DHT22;9563;49.240;9.088;2022-12-19T02:22:07;-0.40;99.90
18868;DHT22;9563;49.240;9.088;2022-12-19T02:25:06;-0.30;99.90
18868;DHT22;9563;49.240;9.088;2022-12-19T02:30:53;-0.20;99.90
18868;DHT22;9563;49.240;9.088;2022-12-19T02:33:31;-0.30;99.90
18868;DHT22;9563;49.240;9.088;2022-12-19T02:36:06;-0.30;99.90
18868;DHT22;9563;49.240;9.088;2022-12-19T02:38:39;-0.20;99.90
18868;DHT22;9563;49.240;9.088;2022-12-19T02:41:11;-0.20;99.90
18868;DHT22;9563;49.240;9.088;2022-12-19T02:43:43;-0.10;99.90
18868;DHT22;9563;49.240;9.088;2022-12-19T02:46:15;-0.10;99.90
18868;DHT22;9563;49.240;9.088;2022-12-19T02:48:42;-0.10;99.90
18868;DHT22;9563;49.240;9.088;2022-12-19T02:51:10;-0.20;99.90
18868;DHT22;9563;49.240;9.088;2022-12-19T02:53:37;-0.20;99.90
18868;DHT22;9563;49.240;9.088;2022-12-19T02:56:17;-0.20;99.90
18868;DHT22;9563;49.240;9.088;2022-12-19T02:58:53;-0.20;99.90
18868;DHT22;9563;49.240;9.088;2022-12-19T03:01:35;-0.20;99.90
18868;DHT22;9563;49.240;9.088;2022-12-19T03:04:14;-0.20;99.90
18868;DHT22;9563;49.240;9.088;2022-12-19T03:06:47;-0.10;99.90
18868;DHT22;9563;49.240;9.088;2022-12-19T03:09:18;0.00;99.90
18868;DHT22;9563;49.240;9.088;2022-12-19T03:11:52;0.10;99.90
18868;DHT22;9563;49.240;9.088;2022-12-19T03:14:23;0.10;99.90
18868;DHT22;9563;49.240;9.088;2022-12-19T03:16:52;0.10;99.90
18868;DHT22;9563;49.240;9.088;2022-12-19T03:19:19;0.10;99.90
18868;DHT22;9563;49.240;9.088;2022-12-19T03:21:47;0.10;99.90
18868;DHT22;9563;49.240;9.088;2022-12-19T03:24:16;0.20;99.90
18868;DHT22;9563;49.240;9.088;2022-12-19T03:26:46;0.20;99.90
18868;DHT22;9563;49.240;9.088;2022-12-19T03:29:20;0.10;99.90
18868;DHT22;9563;49.240;9.088;2022-12-19T03:31:48;0.10;99.90
18868;DHT22;9563;49.240;9.088;2022-12-19T03:34:20;0.20;99.90
18868;DHT22;9563;49.240;9.088;2022-12-19T03:36:54;0.10;99.90
18868;DHT22;9563;49.240;9.088;2022-12-19T03:39:23;0.10;99.90
18868;DHT22;9563;49.240;9.088;2022-12-19T03:41:50;0.10;99.90
18868;DHT22;9563;49.240;9.088;2022-12-19T03:44:38;0.10;99.90
18868;DHT22;9563;49.240;9.088;2022-12-19T03:47:09;0.20;99.90
18868;DHT22;9563;49.240;9.088;2022-12-19T03:49:39;0.20;99.90
18868;DHT22;9563;49.240;9.088;2022-12-19T03:52:11;0.20;99.90
18868;DHT22;9563;49.240;9.088;2022-12-19T03:54:46;0.20;99.90
18868;DHT22;9563;49.240;9.088;2022-12-19T03:57:18;0.30;99.90
18868;DHT22;9563;49.240;9.088;2022-12-19T03:59:48;0.30;99.90
18868;DHT22;9563;49.240;9.088;2022-12-19T04:02:17;0.30;99.90
18868;DHT22;9563;49.240;9.088;2022-12-19T04:04:51;0.40;99.90
18868;DHT22;9563;49.240;9.088;2022-12-19T04:07:21;0.30;99.90
18868;DHT22;9563;49.240;9.088;2022-12-19T04:09:49;0.20;99.90
18868;DHT22;9563;49.240;9.088;2022-12-19T04:12:19;0.20;99.90
18868;DHT22;9563;49.240;9.088;2022-12-19T04:14:48;0.10;99.90
18868;DHT22;9563;49.240;9.088;2022-12-19T04:17:23;0.10;99.90
18868;DHT22;9563;49.240;9.088;2022-12-19T04:19:58;0.10;99.90
18868;DHT22;9563;49.240;9.088;2022-12-19T04:22:30;0.10;99.90
18868;DHT22;9563;49.240;9.088;2022-12-19T04:24:59;0.20;99.90
18868;DHT22;9563;49.240;9.088;2022-12-19T04:27:27;0.30;99.90
18868;DHT22;9563;49.240;9.088;2022-12-19T04:29:56;0.30;99.90
18868;DHT22;9563;49.240;9.088;2022-12-19T04:32:24;0.40;99.90
18868;DHT22;9563;49.240;9.088;2022-12-19T04:34:53;0.40;99.90
18868;DHT22;9563;49.240;9.088;2022-12-19T04:37:20;0.40;99.90
18868;DHT22;9563;49.240;9.088;2022-12-19T04:39:47;0.40;99.90
18868;DHT22;9563;49.240;9.088;2022-12-19T04:42:15;0.40;99.90
18868;DHT22;9563;49.240;9.088;2022-12-19T04:44:41;0.50;99.90
18868;DHT22;9563;49.240;9.088;2022-12-19T04:47:08;0.50;99.90
18868;DHT22;9563;49.240;9.088;2022-12-19T04:49:35;0.60;99.90
18868;DHT22;9563;49.240;9.088;2022-12-19T04:52:04;0.70;99.90
18868;DHT22;9563;49.240;9.088;2022-12-19T04:54:31;0.60;99.90
18868;DHT22;9563;49.240;9.088;2022-12-19T04:56:58;0.60;99.90
18868;DHT22;9563;49.240;9.088;2022-12-19T04:59:25;0.60;99.90
18868;DHT22;9563;49.240;9.088;2022-12-19T05:01:52;0.60;99.90
18868;DHT22;9563;49.240;9.088;2022-12-19T05:04:19;0.60;99.90
18868;DHT22;9563;49.240;9.088;2022-12-19T05:06:46;0.70;99.90
18868;DHT22;9563;49.240;9.088;2022-12-19T05:09:14;0.70;99.90
18868;DHT22;9563;49.240;9.088;2022-12-19T05:11:41;0.50;99.90
18868;DHT22;9563;49.240;9.088;2022-12-19T05:14:08;0.50;99.90
18868;DHT22;9563;49.240;9.088;2022-12-19T05:16:35;0.60;99.90
18868;DHT22;9563;49.240;9.088;2022-12-19T05:19:04;0.50;99.90
18868;DHT22;9563;49.240;9.088;2022-12-19T05:21:31;0.60;99.90
18868;DHT22;9563;49.240;9.088;2022-12-19T05:23:58;0.60;99.90
18868;DHT22;9563;49.240;9.088;2022-12-19T05:26:26;0.70;99.90
18868;DHT22;9563;49.240;9.088;2022-12-19T05:28:52;0.60;99.90
18868;DHT22;9563;49.240;9.088;2022-12-19T05:31:20;0.60;99.90
18868;DHT22;9563;49.240;9.088;2022-12-19T05:33:47;0.60;99.90
18868;DHT22;9563;49.240;9.088;2022-12-19T05:36:16;0.70;99.90
18868;DHT22;9563;49.240;9.088;2022-12-19T05:38:43;0.60;99.90
18868;DHT22;9563;49.240;9.088;2022-12-19T05:41:12;0.70;99.90
18868;DHT22;9563;49.240;9.088;2022-12-19T05:43:42;0.70;99.90
18868;DHT22;9563;49.240;9.088;2022-12-19T05:46:08;0.70;99.90
18868;DHT22;9563;49.240;9.088;2022-12-19T05:48:36;0.70;99.90
18868;DHT22;9563;49.240;9.088;2022-12-19T05:51:03;0.70;99.90
18868;DHT22;9563;49.240;9.088;2022-12-19T05:53:30;0.80;99.90
18868;DHT22;9563;49.240;9.088;2022-12-19T05:56:04;0.80;99.90
18868;DHT22;9563;49.240;9.088;2022-12-19T05:58:31;0.80;99.90
18868;DHT22;9563;49.240;9.088;2022-12-19T06:01:03;0.80;99.90
18868;DHT22;9563;49.240;9.088;2022-12-19T06:03:30;0.80;99.90
18868;DHT22;9563;49.240;9.088;2022-12-19T06:05:58;0.80;99.90
18868;DHT22;9563;49.240;9.088;2022-12-19T06:08:27;0.80;99.90
18868;DHT22;9563;49.240;9.088;2022-12-19T06:10:54;0.70;99.90
18868;DHT22;9563;49.240;9.088;2022-12-19T06:13:20;0.80;99.90
18868;DHT22;9563;49.240;9.088;2022-12-19T06:15:47;0.80;99.90
18868;DHT22;9563;49.240;9.088;2022-12-19T06:18:15;0.80;99.90
18868;DHT22;9563;49.240;9.088;2022-12-19T06:20:42;0.80;99.90
18868;DHT22;9563;49.240;9.088;2022-12-19T06:23:09;0.80;99.90
18868;DHT22;9563;49.240;9.088;2022-12-19T06:25:36;0.70;99.90
18868;DHT22;9563;49.240;9.088;2022-12-19T06:28:03;0.80;99.90
18868;DHT22;9563;49.240;9.088;2022-12-19T06:30:30;0.80;99.90
18868;DHT22;9563;49.240;9.088;2022-12-19T06:32:56;0.80;99.90
18868;DHT22;9563;49.240;9.088;2022-12-19T06:35:25;1.00;99.90
18868;DHT22;9563;49.240;9.088;2022-12-19T06:37:52;1.20;99.90
18868;DHT22;9563;49.240;9.088;2022-12-19T06:40:18;1.30;99.90
18868;DHT22;9563;49.240;9.088;2022-12-19T06:42:59;1.30;99.90
18868;DHT22;9563;49.240;9.088;2022-12-19T06:45:26;1.40;99.90
18868;DHT22;9563;49.240;9.088;2022-12-19T06:47:53;1.40;99.90
18868;DHT22;9563;49.240;9.088;2022-12-19T06:50:21;1.40;99.90
18868;DHT22;9563;49.240;9.088;2022-12-19T06:52:49;1.40;99.90
18868;DHT22;9563;49.240;9.088;2022-12-19T06:55:16;1.50;99.90
18868;DHT22;9563;49.240;9.088;2022-12-19T06:57:43;1.50;99.90
18868;DHT22;9563;49.240;9.088;2022-12-19T07:00:11;1.50;99.90
18868;DHT22;9563;49.240;9.088;2022-12-19T07:02:41;1.50;99.90
18868;DHT22;9563;49.240;9.088;2022-12-19T07:05:10;1.60;99.90
18868;DHT22;9563;49.240;9.088;2022-12-19T07:07:37;1.60;99.90
18868;DHT22;9563;49.240;9.088;2022-12-19T07:10:06;1.60;99.90
18868;DHT22;9563;49.240;9.088;2022-12-19T07:12:34;1.60;99.90
18868;DHT22;9563;49.240;9.088;2022-12-19T07:15:01;1.50;99.90
18868;DHT22;9563;49.240;9.088;2022-12-19T07:17:28;1.40;99.90
18868;DHT22;9563;49.240;9.088;2022-12-19T07:19:56;1.50;99.90
18868;DHT22;9563;49.240;9.088;2022-12-19T07:22:26;1.50;99.90
18868;DHT22;9563;49.240;9.088;2022-12-19T07:24:55;1.50;99.90
18868;DHT22;9563;49.240;9.088;2022-12-19T07:27:23;1.50;99.90
18868;DHT22;9563;49.240;9.088;2022-12-19T07:29:50;1.70;99.90
18868;DHT22;9563;49.240;9.088;2022-12-19T07:32:17;1.60;99.90
18868;DHT22;9563;49.240;9.088;2022-12-19T07:34:44;1.60;99.90
18868;DHT22;9563;49.240;9.088;2022-12-19T07:37:11;1.60;99.90
18868;DHT22;9563;49.240;9.088;2022-12-19T07:39:38;1.60;99.90
18868;DHT22;9563;49.240;9.088;2022-12-19T07:42:05;1.60;99.90
18868;DHT22;9563;49.240;9.088;2022-12-19T07:44:33;1.60;99.90
18868;DHT22;9563;49.240;9.088;2022-12-19T07:47:00;1.60;99.90
18868;DHT22;9563;49.240;9.088;2022-12-19T07:49:27;1.60;99.90
18868;DHT22;9563;49.240;9.088;2022-12-19T07:51:54;1.50;99.90
18868;DHT22;9563;49.240;9.088;2022-12-19T07:54:21;1.50;99.90
18868;DHT22;9563;49.240;9.088;2022-12-19T07:56:48;1.60;99.90
18868;DHT22;9563;49.240;9.088;2022-12-19T07:59:15;1.50;99.90
18868;DHT22;9563;49.240;9.088;2022-12-19T08:01:43;1.60;99.90
18868;DHT22;9563;49.240;9.088;2022-12-19T08:04:10;1.60;99.90
18868;DHT22;9563;49.240;9.088;2022-12-19T08:06:37;1.70;99.90
18868;DHT22;9563;49.240;9.088;2022-12-19T08:09:04;1.80;99.90
18868;DHT22;9563;49.240;9.088;2022-12-19T08:11:31;1.90;99.90
18868;DHT22;9563;49.240;9.088;2022-12-19T08:13:58;1.90;99.90
18868;DHT22;9563;49.240;9.088;2022-12-19T08:16:26;1.90;99.90
18868;DHT22;9563;49.240;9.088;2022-12-19T08:18:54;2.00;99.90
18868;DHT22;9563;49.240;9.088;2022-12-19T08:21:21;2.00;99.90
18868;DHT22;9563;49.240;9.088;2022-12-19T08:23:48;2.00;99.90
18868;DHT22;9563;49.240;9.088;2022-12-19T08:26:19;2.10;99.90
18868;DHT22;9563;49.240;9.088;2022-12-19T08:28:52;2.20;99.90
18868;DHT22;9563;49.240;9.088;2022-12-19T08:31:31;2.20;99.90
18868;DHT22;9563;49.240;9.088;2022-12-19T08:33:59;2.30;99.90
18868;DHT22;9563;49.240;9.088;2022-12-19T08:36:26;2.30;99.90
18868;DHT22;9563;49.240;9.088;2022-12-19T08:38:53;2.30;99.90
18868;DHT22;9563;49.240;9.088;2022-12-19T08:41:20;2.30;99.90
18868;DHT22;9563;49.240;9.088;2022-12-19T08:43:48;2.40;99.90
18868;DHT22;9563;49.240;9.088;2022-12-19T08:46:16;2.40;99.90
18868;DHT22;9563;49.240;9.088;2022-12-19T08:48:43;2.40;99.90
18868;DHT22;9563;49.240;9.088;2022-12-19T08:51:12;2.50;99.90
18868;DHT22;9563;49.240;9.088;2022-12-19T08:53:41;2.50;99.90
18868;DHT22;9563;49.240;9.088;2022-12-19T08:56:11;2.50;99.90
18868;DHT22;9563;49.240;9.088;2022-12-19T08:58:39;2.50;99.90
18868;DHT22;9563;49.240;9.088;2022-12-19T09:01:10;2.50;99.90
18868;DHT22;9563;49.240;9.088;2022-12-19T09:03:38;2.60;99.90
18868;DHT22;9563;49.240;9.088;2022-12-19T09:06:07;2.60;99.90
18868;DHT22;9563;49.240;9.088;2022-12-19T09:08:36;2.70;99.90
18868;DHT22;9563;49.240;9.088;2022-12-19T09:11:05;2.70;99.90
18868;DHT22;9563;49.240;9.088;2022-12-19T09:13:33;2.60;99.90
18868;DHT22;9563;49.240;9.088;2022-12-19T09:16:01;2.70;99.90
18868;DHT22;9563;49.240;9.088;2022-12-19T09:18:30;2.70;99.90
18868;DHT22;9563;49.240;9.088;2022-12-19T09:20:58;2.80;99.90
18868;DHT22;9563;49.240;9.088;2022-12-19T09:23:26;2.80;99.90
18868;DHT22;9563;49.240;9.088;2022-12-19T09:25:55;2.80;99.90
18868;DHT22;9563;49.240;9.088;2022-12-19T09:28:23;2.80;99.90
18868;DHT22;9563;49.240;9.088;2022-12-19T09:30:54;2.80;99.90
18868;DHT22;9563;49.240;9.088;2022-12-19T09:33:22;2.90;99.90
18868;DHT22;9563;49.240;9.088;2022-12-19T09:35:49;3.00;99.90
18868;DHT22;9563;49.240;9.088;2022-12-19T09:38:16;3.00;99.90
18868;DHT22;9563;49.240;9.088;2022-12-19T09:41:00;3.00;99.90
18868;DHT22;9563;49.240;9.088;2022-12-19T09:43:42;3.00;99.90
18868;DHT22;9563;49.240;9.088;2022-12-19T09:46:16;3.00;99.90
18868;DHT22;9563;49.240;9.088;2022-12-19T09:48:44;2.90;99.90
18868;DHT22;9563;49.240;9.088;2022-12-19T09:51:15;2.90;99.90
18868;DHT22;9563;49.240;9.088;2022-12-19T09:53:54;2.90;99.90
18868;DHT22;9563;49.240;9.088;2022-12-19T09:56:29;3.00;99.90
18868;DHT22;9563;49.240;9.088;2022-12-19T09:59:01;3.00;99.90
18868;DHT22;9563;49.240;9.088;2022-12-19T10:01:32;3.00;99.90
18868;DHT22;9563;49.240;9.088;2022-12-19T10:04:08;3.00;99.90
18868;DHT22;9563;49.240;9.088;2022-12-19T10:06:36;3.10;99.90
18868;DHT22;9563;49.240;9.088;2022-12-19T10:09:10;3.10;99.90
18868;DHT22;9563;49.240;9.088;2022-12-19T10:11:50;3.20;99.90
18868;DHT22;9563;49.240;9.088;2022-12-19T10:14:32;3.30;99.90
18868;DHT22;9563;49.240;9.088;2022-12-19T10:17:06;3.30;99.90
18868;DHT22;9563;49.240;9.088;2022-12-19T10:19:45;3.30;99.90
18868;DHT22;9563;49.240;9.088;2022-12-19T10:22:23;3.40;99.90
18868;DHT22;9563;49.240;9.088;2022-12-19T10:25:06;3.40;99.90
18868;DHT22;9563;49.240;9.088;2022-12-19T10:27:42;3.50;99.90
18868;DHT22;9563;49.240;9.088;2022-12-19T10:30:14;3.50;99.90
18868;DHT22;9563;49.240;9.088;2022-12-19T10:32:54;3.50;99.90
18868;DHT22;9563;49.240;9.088;2022-12-19T10:35:28;3.50;99.90
18868;DHT22;9563;49.240;9.088;2022-12-19T10:38:07;3.60;99.90
18868;DHT22;9563;49.240;9.088;2022-12-19T10:40:42;3.60;99.90
18868;DHT22;9563;49.240;9.088;2022-12-19T10:43:15;3.80;99.90
18868;DHT22;9563;49.240;9.088;2022-12-19T10:45:45;3.80;99.90
18868;DHT22;9563;49.240;9.088;2022-12-19T10:48:16;3.90;99.90
18868;DHT22;9563;49.240;9.088;2022-12-19T10:50:44;4.00;99.90
18868;DHT22;9563;49.240;9.088;2022-12-19T10:53:13;4.20;99.90
18868;DHT22;9563;49.240;9.088;2022-12-19T10:55:45;4.40;99.90
18868;DHT22;9563;49.240;9.088;2022-12-19T10:58:20;4.50;99.90
18868;DHT22;9563;49.240;9.088;2022-12-19T11:03:48;4.70;99.90
18868;DHT22;9563;49.240;9.088;2022-12-19T11:06:39;4.80;99.90
18868;DHT22;9563;49.240;9.088;2022-12-19T11:09:27;4.80;99.90
18868;DHT22;9563;49.240;9.088;2022-12-19T11:12:04;4.90;99.90
18868;DHT22;9563;49.240;9.088;2022-12-19T11:14:39;4.90;99.90
18868;DHT22;9563;49.240;9.088;2022-12-19T11:17:23;5.00;99.90
18868;DHT22;9563;49.240;9.088;2022-12-19T11:19:50;5.00;99.90
18868;DHT22;9563;49.240;9.088;2022-12-19T11:22:20;5.10;99.90
18868;DHT22;9563;49.240;9.088;2022-12-19T11:24:49;5.10;99.90
18868;DHT22;9563;49.240;9.088;2022-12-19T11:27:37;5.20;99.90
18868;DHT22;9563;49.240;9.088;2022-12-19T11:30:18;5.10;99.90
18868;DHT22;9563;49.240;9.088;2022-12-19T11:32:47;5.20;99.90
18868;DHT22;9563;49.240;9.088;2022-12-19T11:35:18;5.30;99.90
18868;DHT22;9563;49.240;9.088;2022-12-19T11:37:49;5.40;99.90
18868;DHT22;9563;49.240;9.088;2022-12-19T11:40:22;5.40;99.90
18868;DHT22;9563;49.240;9.088;2022-12-19T11:42:58;5.40;99.90
18868;DHT22;9563;49.240;9.088;2022-12-19T11:45:38;5.40;99.90
18868;DHT22;9563;49.240;9.088;2022-12-19T11:48:10;5.40;99.90
18868;DHT22;9563;49.240;9.088;2022-12-19T11:50:55;5.40;99.90
18868;DHT22;9563;49.240;9.088;2022-12-19T11:53:28;5.30;99.90
18868;DHT22;9563;49.240;9.088;2022-12-19T11:55:59;5.30;99.90
18868;DHT22;9563;49.240;9.088;2022-12-19T11:58:29;5.20;99.90
18868;DHT22;9563;49.240;9.088;2022-12-19T12:01:04;5.30;99.90
18868;DHT22;9563;49.240;9.088;2022-12-19T12:03:46;5.40;99.90
18868;DHT22;9563;49.240;9.088;2022-12-19T12:06:16;5.30;99.90
18868;DHT22;9563;49.240;9.088;2022-12-19T12:08:59;5.30;99.90
18868;DHT22;9563;49.240;9.088;2022-12-19T12:11:36;5.30;99.90
18868;DHT22;9563;49.240;9.088;2022-12-19T12:14:16;5.30;99.90
18868;DHT22;9563;49.240;9.088;2022-12-19T12:17:16;5.40;99.90
18868;DHT22;9563;49.240;9.088;2022-12-19T12:19:55;5.30;99.90
18868;DHT22;9563;49.240;9.088;2022-12-19T12:22:44;5.30;99.90
18868;DHT22;9563;49.240;9.088;2022-12-19T12:25:28;5.30;99.90
18868;DHT22;9563;49.240;9.088;2022-12-19T12:28:06;5.30;99.90
18868;DHT22;9563;49.240;9.088;2022-12-19T12:30:41;5.30;99.90
18868;DHT22;9563;49.240;9.088;2022-12-19T12:33:19;5.30;99.90
18868;DHT22;9563;49.240;9.088;2022-12-19T12:35:59;5.20;99.90
18868;DHT22;9563;49.240;9.088;2022-12-19T12:38:43;5.20;99.90
18868;DHT22;9563;49.240;9.088;2022-12-19T12:41:22;5.10;99.90
18868;DHT22;9563;49.240;9.088;2022-12-19T12:44:12;5.10;99.90
18868;DHT22;9563;49.240;9.088;2022-12-19T12:46:42;5.00;99.90
18868;DHT22;9563;49.240;9.088;2022-12-19T12:49:29;4.90;99.90
18868;DHT22;9563;49.240;9.088;2022-12-19T12:51:58;4.90;99.90
18868;DHT22;9563;49.240;9.088;2022-12-19T12:54:32;5.00;99.90
18868;DHT22;9563;49.240;9.088;2022-12-19T12:57:00;5.00;99.90
18868;DHT22;9563;49.240;9.088;2022-12-19T12:59:28;5.00;99.90
18868;DHT22;9563;49.240;9.088;2022-12-19T13:01:59;5.10;99.90
18868;DHT22;9563;49.240;9.088;2022-12-19T13:04:31;5.10;99.90
18868;DHT22;9563;49.240;9.088;2022-12-19T13:09:53;5.20;99.90
18868;DHT22;9563;49.240;9.088;2022-12-19T13:12:30;5.20;99.90
18868;DHT22;9563;49.240;9.088;2022-12-19T13:15:33;5.30;99.90
18868;DHT22;9563;49.240;9.088;2022-12-19T13:18:31;5.40;99.90
18868;DHT22;9563;49.240;9.088;2022-12-19T13:21:03;5.40;99.90
18868;DHT22;9563;49.240;9.088;2022-12-19T13:23:45;5.40;99.90
18868;DHT22;9563;49.240;9.088;2022-12-19T13:26:43;5.40;99.90
18868;DHT22;9563;49.240;9.088;2022-12-19T13:29:31;5.50;99.90
18868;DHT22;9563;49.240;9.088;2022-12-19T13:32:13;5.50;99.90
18868;DHT22;9563;49.240;9.088;2022-12-19T13:34:51;5.60;99.90
18868;DHT22;9563;49.240;9.088;2022-12-19T13:37:27;5.50;99.90
18868;DHT22;9563;49.240;9.088;2022-12-19T13:40:25;5.40;99.90
18868;DHT22;9563;49.240;9.088;2022-12-19T13:43:00;5.30;99.90
18868;DHT22;9563;49.240;9.088;2022-12-19T13:45:51;5.30;99.90
18868;DHT22;9563;49.240;9.088;2022-12-19T13:48:27;5.20;99.90
18868;DHT22;9563;49.240;9.088;2022-12-19T13:50:55;5.20;99.90
18868;DHT22;9563;49.240;9.088;2022-12-19T13:53:26;5.20;99.90
18868;DHT22;9563;49.240;9.088;2022-12-19T13:55:54;5.20;99.90
18868;DHT22;9563;49.240;9.088;2022-12-19T13:58:26;5.20;99.90
18868;DHT22;9563;49.240;9.088;2022-12-19T14:00:55;5.10;99.90
18868;DHT22;9563;49.240;9.088;2022-12-19T14:03:31;5.10;99.90
18868;DHT22;9563;49.240;9.088;2022-12-19T14:06:02;5.10;99.90
18868;DHT22;9563;49.240;9.088;2022-12-19T14:08:33;5.10;99.90
18868;DHT22;9563;49.240;9.088;2022-12-19T14:11:01;5.10;99.90
18868;DHT22;9563;49.240;9.088;2022-12-19T14:13:28;5.20;99.90
18868;DHT22;9563;49.240;9.088;2022-12-19T14:16:13;5.10;99.90
18868;DHT22;9563;49.240;9.088;2022-12-19T14:18:46;5.10;99.90
18868;DHT22;9563;49.240;9.088;2022-12-19T14:21:16;5.10;99.90
18868;DHT22;9563;49.240;9.088;2022-12-19T14:23:45;5.00;99.90
18868;DHT22;9563;49.240;9.088;2022-12-19T14:26:17;5.10;99.90
18868;DHT22;9563;49.240;9.088;2022-12-19T14:28:51;5.10;99.90
18868;DHT22;9563;49.240;9.088;2022-12-19T14:31:20;5.10;99.90
18868;DHT22;9563;49.240;9.088;2022-12-19T14:33:50;5.10;99.90
18868;DHT22;9563;49.240;9.088;2022-12-19T14:36:24;5.10;99.90
18868;DHT22;9563;49.240;9.088;2022-12-19T14:38:54;5.00;99.90
18868;DHT22;9563;49.240;9.088;2022-12-19T14:41:37;5.00;99.90
18868;DHT22;9563;49.240;9.088;2022-12-19T14:44:22;4.90;99.90
18868;DHT22;9563;49.240;9.088;2022-12-19T14:47:02;4.90;99.90
18868;DHT22;9563;49.240;9.088;2022-12-19T14:49:32;4.80;99.90
18868;DHT22;9563;49.240;9.088;2022-12-19T14:52:02;4.70;99.90
18868;DHT22;9563;49.240;9.088;2022-12-19T14:54:31;4.70;99.90
18868;DHT22;9563;49.240;9.088;2022-12-19T14:57:00;4.70;99.90
18868;DHT22;9563;49.240;9.088;2022-12-19T14:59:30;4.60;99.90
18868;DHT22;9563;49.240;9.088;2022-12-19T15:02:09;4.60;99.90
18868;DHT22;9563;49.240;9.088;2022-12-19T15:04:40;4.60;99.90
18868;DHT22;9563;49.240;9.088;2022-12-19T15:07:13;4.60;99.90
18868;DHT22;9563;49.240;9.088;2022-12-19T15:09:53;4.60;99.90
18868;DHT22;9563;49.240;9.088;2022-12-19T15:12:26;4.60;99.90
18868;DHT22;9563;49.240;9.088;2022-12-19T15:15:20;4.60;99.90
18868;DHT22;9563;49.240;9.088;2022-12-19T15:17:48;4.60;99.90
18868;DHT22;9563;49.240;9.088;2022-12-19T15:20:16;4.50;99.90
18868;DHT22;9563;49.240;9.088;2022-12-19T15:22:43;4.40;99.90
18868;DHT22;9563;49.240;9.088;2022-12-19T15:25:14;4.40;99.90
18868;DHT22;9563;49.240;9.088;2022-12-19T15:27:43;4.40;99.90
18868;DHT22;9563;49.240;9.088;2022-12-19T15:30:15;4.40;99.90
18868;DHT22;9563;49.240;9.088;2022-12-19T15:32:43;4.40;99.90
18868;DHT22;9563;49.240;9.088;2022-12-19T15:35:12;4.30;99.90
18868;DHT22;9563;49.240;9.088;2022-12-19T15:37:39;4.40;99.90
18868;DHT22;9563;49.240;9.088;2022-12-19T15:40:14;4.30;99.90
18868;DHT22;9563;49.240;9.088;2022-12-19T15:42:42;4.30;99.90
18868;DHT22;9563;49.240;9.088;2022-12-19T15:45:13;4.20;99.90
18868;DHT22;9563;49.240;9.088;2022-12-19T15:47:42;4.20;99.90
18868;DHT22;9563;49.240;9.088;2022-12-19T15:50:20;4.30;99.90
18868;DHT22;9563;49.240;9.088;2022-12-19T15:52:47;4.50;99.90
18868;DHT22;9563;49.240;9.088;2022-12-19T15:55:17;4.60;99.90
18868;DHT22;9563;49.240;9.088;2022-12-19T15:57:46;4.50;99.90
18868;DHT22;9563;49.240;9.088;2022-12-19T16:00:17;4.60;99.90
18868;DHT22;9563;49.240;9.088;2022-12-19T16:02:46;4.60;99.90
18868;DHT22;9563;49.240;9.088;2022-12-19T16:05:14;4.60;99.90
18868;DHT22;9563;49.240;9.088;2022-12-19T16:07:42;4.60;99.90
18868;DHT22;9563;49.240;9.088;2022-12-19T16:10:10;4.60;99.90
18868;DHT22;9563;49.240;9.088;2022-12-19T16:12:41;4.50;99.90
18868;DHT22;9563;49.240;9.088;2022-12-19T16:15:13;4.50;99.90
18868;DHT22;9563;49.240;9.088;2022-12-19T16:17:41;4.40;99.90
18868;DHT22;9563;49.240;9.088;2022-12-19T16:20:15;4.30;99.90
18868;DHT22;9563;49.240;9.088;2022-12-19T16:22:42;4.20;99.90
18868;DHT22;9563;49.240;9.088;2022-12-19T16:25:10;4.10;99.90
18868;DHT22;9563;49.240;9.088;2022-12-19T16:27:39;4.10;99.90
18868;DHT22;9563;49.240;9.088;2022-12-19T16:30:16;4.00;99.90
18868;DHT22;9563;49.240;9.088;2022-12-19T16:32:44;4.00;99.90
18868;DHT22;9563;49.240;9.088;2022-12-19T16:35:14;3.90;99.90